createdAt,value
2023-03-10T00:01:19.995Z,11.39
2023-03-10T00:03:53.863Z,11.41
2023-03-10T00:06:28.623Z,11.30
2023-03-10T00:09:02.181Z,11.36
2023-03-10T00:11:36.537Z,11.41
2023-03-10T00:14:09.865Z,11.32
2023-03-10T00:16:43.285Z,11.43
2023-03-10T00:19:16.344Z,11.34
2023-03-10T00:21:49.528Z,11.32
2023-03-10T00:24:22.670Z,11.34
2023-03-10T00:26:56.839Z,11.35
2023-03-10T00:29:29.800Z,11.40
2023-03-10T00:32:02.705Z,11.33
2023-03-10T00:34:35.661Z,11.33
2023-03-10T00:37:09.383Z,11.34
2023-03-10T00:39:42.463Z,11.33
2023-03-10T00:42:16.786Z,11.30
2023-03-10T00:44:49.793Z,11.22
2023-03-10T00:47:22.789Z,11.18
2023-03-10T00:49:55.945Z,11.20
2023-03-10T00:52:32.867Z,11.21
2023-03-10T00:55:06.280Z,11.20
2023-03-10T00:57:40.600Z,11.18
2023-03-10T01:00:16.040Z,11.17
2023-03-10T01:02:51.556Z,11.18
2023-03-10T01:05:25.034Z,11.19
2023-03-10T01:07:58.016Z,11.17
2023-03-10T01:10:31.050Z,11.13
2023-03-10T01:13:06.514Z,11.03
2023-03-10T01:15:40.013Z,10.95
2023-03-10T01:18:13.268Z,10.90
2023-03-10T01:20:47.044Z,10.92
2023-03-10T01:23:21.735Z,10.83
2023-03-10T01:25:54.875Z,10.74
2023-03-10T01:28:29.254Z,10.75
2023-03-10T01:31:02.383Z,10.70
2023-03-10T01:33:35.968Z,10.60
2023-03-10T01:36:09.552Z,10.59
2023-03-10T01:38:43.159Z,10.57
2023-03-10T01:41:17.152Z,10.47
2023-03-10T01:43:52.201Z,10.45
2023-03-10T01:46:40.041Z,10.51
2023-03-10T01:49:19.090Z,10.53
2023-03-10T01:51:53.545Z,10.46
2023-03-10T01:54:29.544Z,10.49
2023-03-10T01:57:03.519Z,10.45
2023-03-10T01:59:37.914Z,10.43
2023-03-10T02:02:11.329Z,10.39
2023-03-10T02:04:45.665Z,10.31
2023-03-10T02:07:20.338Z,10.31
2023-03-10T02:09:54.030Z,10.21
2023-03-10T02:12:27.499Z,10.22
2023-03-10T02:15:02.246Z,10.16
2023-03-10T02:17:35.752Z,10.16
2023-03-10T02:20:27.772Z,10.00
2023-03-10T02:23:01.052Z,10.03
2023-03-10T02:25:40.042Z,9.86
2023-03-10T02:28:14.701Z,9.90
2023-03-10T02:30:49.515Z,9.94
2023-03-10T02:33:24.866Z,9.93
2023-03-10T02:36:03.408Z,9.95
2023-03-10T02:38:36.404Z,9.90
2023-03-10T02:41:15.897Z,9.81
2023-03-10T02:43:50.810Z,9.73
2023-03-10T02:46:24.403Z,9.80
2023-03-10T02:48:59.814Z,9.72
2023-03-10T02:51:35.346Z,9.67
2023-03-10T02:54:09.933Z,9.74
2023-03-10T02:56:43.370Z,9.79
2023-03-10T02:59:17.971Z,9.71
2023-03-10T03:01:50.890Z,9.72
2023-03-10T03:04:23.886Z,9.67
2023-03-10T03:06:57.105Z,9.56
2023-03-10T03:09:30.255Z,9.68
2023-03-10T03:12:03.900Z,9.71
2023-03-10T03:14:38.649Z,9.38
2023-03-10T03:17:12.449Z,9.47
2023-03-10T03:19:45.499Z,9.58
2023-03-10T03:22:18.677Z,9.35
2023-03-10T03:24:51.719Z,9.37
2023-03-10T03:27:24.649Z,9.43
2023-03-10T03:29:59.366Z,9.37
2023-03-10T03:32:32.383Z,9.41
2023-03-10T03:35:06.052Z,9.46
2023-03-10T03:37:39.303Z,9.50
2023-03-10T03:40:13.910Z,9.40
2023-03-10T03:42:48.094Z,9.38
2023-03-10T03:45:23.738Z,9.30
2023-03-10T03:47:56.682Z,9.35
2023-03-10T03:50:30.074Z,9.41
2023-03-10T03:53:03.454Z,9.45
2023-03-10T03:55:36.499Z,9.32
2023-03-10T03:58:09.459Z,9.27
2023-03-10T04:00:44.017Z,9.33
2023-03-10T04:03:17.034Z,9.32
2023-03-10T04:05:50.276Z,9.21
2023-03-10T04:08:23.462Z,9.29
2023-03-10T04:10:56.967Z,9.21
2023-03-10T04:13:30.803Z,9.13
2023-03-10T04:16:06.018Z,9.15
2023-03-10T04:18:39.527Z,9.24
2023-03-10T04:21:13.082Z,9.21
2023-03-10T04:23:46.579Z,9.23
2023-03-10T04:26:19.693Z,9.27
2023-03-10T04:28:52.675Z,9.17
2023-03-10T04:31:27.530Z,9.11
2023-03-10T04:34:00.684Z,9.18
2023-03-10T04:36:33.898Z,9.23
2023-03-10T04:39:07.204Z,9.31
2023-03-10T04:41:40.201Z,9.19
2023-03-10T04:44:29.796Z,9.16
2023-03-10T04:47:05.322Z,9.08
2023-03-10T04:49:39.070Z,9.18
2023-03-10T04:52:12.159Z,9.20
2023-03-10T04:54:44.974Z,9.04
2023-03-10T04:57:18.230Z,9.09
2023-03-10T04:59:52.852Z,9.18
2023-03-10T05:02:27.459Z,9.26
2023-03-10T05:05:01.845Z,9.21
2023-03-10T05:07:34.877Z,9.26
2023-03-10T05:10:08.302Z,9.23
2023-03-10T05:12:43.315Z,9.10
2023-03-10T05:15:17.205Z,9.27
2023-03-10T05:17:52.122Z,9.44
2023-03-10T05:20:25.448Z,9.49
2023-03-10T05:22:58.396Z,9.41
2023-03-10T05:25:31.663Z,9.44
2023-03-10T05:28:05.256Z,9.47
2023-03-10T05:30:38.973Z,9.41
2023-03-10T05:33:13.340Z,9.40
2023-03-10T05:35:46.344Z,9.36
2023-03-10T05:38:20.630Z,9.47
2023-03-10T05:40:54.220Z,9.56
2023-03-10T05:43:27.667Z,9.50
2023-03-10T05:46:01.248Z,9.34
2023-03-10T05:48:36.130Z,9.33
2023-03-10T05:51:10.847Z,9.43
2023-03-10T05:53:44.148Z,9.50
2023-03-10T05:56:19.076Z,9.50
2023-03-10T05:58:52.353Z,9.49
2023-03-10T06:01:25.352Z,9.49
2023-03-10T06:04:00.718Z,9.55
2023-03-10T06:06:33.744Z,9.65
2023-03-10T06:09:07.282Z,9.64
2023-03-10T06:11:41.055Z,9.63
2023-03-10T06:14:14.236Z,9.71
2023-03-10T06:16:51.486Z,9.79
2023-03-10T06:19:26.330Z,9.84
2023-03-10T06:21:59.501Z,9.83
2023-03-10T06:24:32.832Z,9.89
2023-03-10T06:27:06.464Z,9.93
2023-03-10T06:29:39.685Z,10.04
2023-03-10T06:32:14.037Z,10.17
2023-03-10T06:34:48.429Z,10.20
2023-03-10T06:37:21.566Z,10.15
2023-03-10T06:39:54.910Z,10.20
2023-03-10T06:42:27.956Z,10.23
2023-03-10T06:45:01.025Z,10.33
2023-03-10T06:47:34.206Z,10.34
2023-03-10T06:50:09.512Z,10.41
2023-03-10T06:52:42.694Z,10.45
2023-03-10T06:55:17.043Z,10.51
2023-03-10T06:57:50.061Z,10.56
2023-03-10T07:00:23.614Z,10.67
2023-03-10T07:02:56.693Z,10.72
2023-03-10T07:05:31.245Z,10.75
2023-03-10T07:08:04.589Z,10.75
2023-03-10T07:10:37.828Z,10.89
2023-03-10T07:13:15.545Z,10.97
2023-03-10T07:15:49.341Z,11.05
2023-03-10T07:18:22.741Z,11.13
2023-03-10T07:20:58.259Z,11.38
2023-03-10T07:23:31.454Z,11.42
2023-03-10T07:26:07.914Z,11.50
2023-03-10T07:28:41.012Z,11.57
2023-03-10T07:31:15.115Z,11.67
2023-03-10T07:33:49.349Z,11.74
2023-03-10T07:36:24.252Z,11.85
2023-03-10T07:38:57.634Z,11.97
2023-03-10T07:41:30.703Z,12.15
2023-03-10T07:44:03.787Z,12.33
2023-03-10T07:46:36.699Z,12.56
2023-03-10T07:49:09.821Z,12.65
2023-03-10T07:51:44.384Z,12.76
2023-03-10T07:54:17.534Z,12.75
2023-03-10T07:56:51.212Z,12.82
2023-03-10T07:59:24.454Z,13.01
2023-03-10T08:01:57.683Z,13.01
2023-03-10T08:04:31.114Z,13.06
2023-03-10T08:07:06.539Z,13.04
2023-03-10T08:09:39.630Z,13.05
2023-03-10T08:12:13.930Z,13.15
2023-03-10T08:14:47.210Z,13.16
2023-03-10T08:17:20.268Z,13.19
2023-03-10T08:19:53.477Z,13.30
2023-03-10T08:22:28.234Z,13.25
2023-03-10T08:25:01.540Z,13.32
2023-03-10T08:27:34.571Z,13.47
2023-03-10T08:30:08.018Z,13.41
2023-03-10T08:32:41.513Z,13.51
2023-03-10T08:35:15.005Z,13.59
2023-03-10T08:37:49.502Z,13.52
2023-03-10T08:40:22.883Z,13.61
2023-03-10T08:42:55.903Z,13.64
2023-03-10T08:45:28.834Z,13.85
2023-03-10T08:48:02.020Z,14.01
2023-03-10T08:50:35.341Z,13.90
2023-03-10T08:53:09.903Z,13.97
2023-03-10T08:55:42.875Z,13.98
2023-03-10T08:58:16.876Z,13.93
2023-03-10T09:00:49.924Z,13.95
2023-03-10T09:03:22.987Z,13.94
2023-03-10T09:05:56.551Z,14.04
2023-03-10T09:08:31.615Z,14.00
2023-03-10T09:11:04.829Z,14.00
2023-03-10T09:13:39.434Z,14.07
2023-03-10T09:16:13.494Z,13.86
2023-03-10T09:18:46.756Z,14.35
2023-03-10T09:21:20.405Z,14.26
2023-03-10T09:23:55.077Z,14.19
2023-03-10T09:26:28.153Z,14.13
2023-03-10T09:29:01.847Z,14.11
2023-03-10T09:31:36.322Z,14.10
2023-03-10T09:34:11.668Z,14.19
2023-03-10T09:36:44.836Z,14.22
2023-03-10T09:39:19.076Z,14.27
2023-03-10T09:42:09.534Z,14.31
2023-03-10T09:44:47.940Z,14.36
2023-03-10T09:47:26.081Z,14.30
2023-03-10T09:50:11.654Z,14.24
2023-03-10T09:52:47.038Z,14.27
2023-03-10T09:55:22.907Z,14.29
2023-03-10T09:57:56.943Z,14.37
2023-03-10T10:00:31.904Z,14.60
2023-03-10T10:03:09.137Z,14.68
2023-03-10T10:05:43.121Z,14.60
2023-03-10T10:08:21.155Z,14.62
2023-03-10T10:10:56.638Z,14.76
2023-03-10T10:13:31.028Z,14.85
2023-03-10T10:16:24.610Z,14.87
2023-03-10T10:19:05.382Z,14.80
2023-03-10T10:21:43.547Z,14.86
2023-03-10T10:24:17.256Z,15.19
2023-03-10T10:26:51.905Z,15.09
2023-03-10T10:29:26.012Z,15.26
2023-03-10T10:32:07.700Z,15.22
2023-03-10T10:34:41.913Z,15.31
2023-03-10T10:37:23.291Z,15.41
2023-03-10T10:39:57.326Z,15.30
2023-03-10T10:42:32.813Z,15.27
2023-03-10T10:45:07.276Z,15.24
2023-03-10T10:47:47.752Z,15.19
2023-03-10T10:50:22.865Z,15.32
2023-03-10T10:53:10.713Z,15.43
2023-03-10T10:55:45.126Z,15.35
2023-03-10T10:58:28.293Z,15.36
2023-03-10T11:01:02.209Z,15.49
2023-03-10T11:03:36.943Z,15.52
2023-03-10T11:06:14.388Z,15.53
2023-03-10T11:08:51.404Z,15.99
2023-03-10T11:11:29.560Z,15.94
2023-03-10T11:14:14.231Z,16.00
2023-03-10T11:16:52.154Z,15.96
2023-03-10T11:19:28.813Z,16.09
2023-03-10T11:22:08.359Z,16.06
2023-03-10T11:24:47.256Z,15.98
2023-03-10T11:27:25.869Z,15.96
2023-03-10T11:30:05.659Z,15.78
2023-03-10T11:32:46.314Z,15.80
2023-03-10T11:35:22.228Z,16.01
2023-03-10T11:38:02.331Z,16.34
2023-03-10T11:40:40.721Z,16.38
2023-03-10T11:43:18.518Z,16.26
2023-03-10T11:45:54.500Z,16.20
2023-03-10T11:48:41.545Z,16.30
2023-03-10T11:51:19.233Z,16.27
2023-03-10T11:53:54.269Z,16.20
2023-03-10T11:56:28.142Z,16.19
2023-03-10T11:59:04.106Z,16.18
2023-03-10T12:01:41.572Z,16.18
2023-03-10T12:04:17.324Z,16.00
2023-03-10T12:06:53.877Z,15.99
2023-03-10T12:09:33.299Z,16.19
2023-03-10T12:12:07.878Z,15.97
2023-03-10T12:14:42.758Z,16.13
2023-03-10T12:17:18.651Z,16.04
2023-03-10T12:20:12.076Z,15.94
2023-03-10T12:22:46.413Z,16.06
2023-03-10T12:25:38.493Z,16.01
2023-03-10T12:28:29.606Z,15.95
2023-03-10T12:31:03.622Z,15.86
2023-03-10T12:33:55.898Z,15.94
2023-03-10T12:36:39.531Z,15.82
2023-03-10T12:39:30.328Z,15.75
2023-03-10T12:42:04.676Z,15.72
2023-03-10T12:44:48.358Z,15.60
2023-03-10T12:47:28.814Z,15.52
2023-03-10T12:50:04.428Z,15.61
2023-03-10T12:52:47.770Z,15.48
2023-03-10T12:55:24.227Z,15.43
2023-03-10T12:58:15.276Z,15.44
2023-03-10T13:00:50.624Z,15.51
2023-03-10T13:03:27.407Z,15.34
2023-03-10T13:06:06.059Z,15.37
2023-03-10T13:08:44.758Z,15.38
2023-03-10T13:11:24.656Z,15.30
2023-03-10T13:14:00.362Z,15.32
2023-03-10T13:16:36.432Z,15.33
2023-03-10T13:19:20.040Z,15.32
2023-03-10T13:21:53.532Z,15.37
2023-03-10T13:24:29.382Z,15.37
2023-03-10T13:27:09.190Z,15.34
2023-03-10T13:29:42.419Z,15.29
2023-03-10T13:32:19.567Z,15.40
2023-03-10T13:34:53.406Z,15.28
2023-03-10T13:37:26.690Z,15.17
2023-03-10T13:40:09.652Z,15.13
2023-03-10T13:42:44.682Z,15.21
2023-03-10T13:45:22.883Z,15.11
2023-03-10T13:47:56.006Z,15.12
2023-03-10T13:50:30.145Z,15.14
2023-03-10T13:53:04.617Z,15.08
2023-03-10T13:55:41.678Z,15.05
2023-03-10T13:58:15.256Z,15.04
2023-03-10T14:00:50.687Z,15.08
2023-03-10T14:03:23.671Z,15.04
2023-03-10T14:05:56.582Z,15.09
2023-03-10T14:08:32.478Z,15.05
2023-03-10T14:11:38.683Z,15.14
2023-03-10T14:14:14.514Z,15.04
2023-03-10T14:16:48.904Z,15.06
2023-03-10T14:19:37.847Z,15.05
2023-03-10T14:22:31.233Z,14.97
2023-03-10T14:25:08.042Z,15.03
2023-03-10T14:27:42.758Z,15.04
2023-03-10T14:30:25.498Z,15.00
2023-03-10T14:32:59.386Z,14.94
2023-03-10T14:35:32.568Z,14.97
2023-03-10T14:38:05.877Z,14.90
2023-03-10T14:40:40.784Z,14.90
2023-03-10T14:43:16.799Z,14.87
2023-03-10T14:45:52.121Z,14.91
2023-03-10T14:48:27.457Z,14.86
2023-03-10T14:51:00.779Z,14.84
2023-03-10T14:53:34.359Z,14.84
2023-03-10T14:56:07.508Z,14.82
2023-03-10T14:58:44.700Z,14.78
2023-03-10T15:01:20.470Z,14.84
2023-03-10T15:03:53.648Z,14.78
2023-03-10T15:06:26.779Z,14.74
2023-03-10T15:09:01.168Z,14.78
2023-03-10T15:11:37.343Z,14.82
2023-03-10T15:14:14.055Z,14.71
2023-03-10T15:16:49.565Z,14.73
2023-03-10T15:19:23.358Z,14.74
2023-03-10T15:21:56.685Z,14.69
2023-03-10T15:24:29.782Z,14.67
2023-03-10T15:27:04.385Z,14.67
2023-03-10T15:29:37.577Z,14.63
2023-03-10T15:32:12.997Z,14.60
2023-03-10T15:34:46.089Z,14.63
2023-03-10T15:37:18.914Z,14.60
2023-03-10T15:39:52.018Z,14.60
2023-03-10T15:42:25.301Z,14.54
2023-03-10T15:44:58.426Z,14.48
2023-03-10T15:47:33.008Z,14.51
2023-03-10T15:50:06.428Z,14.43
2023-03-10T15:52:39.775Z,14.38
2023-03-10T15:55:14.916Z,14.37
2023-03-10T15:57:49.950Z,14.29
2023-03-10T16:00:24.637Z,14.29
2023-03-10T16:02:59.041Z,14.27
2023-03-10T16:05:34.024Z,14.22
2023-03-10T16:08:07.259Z,14.20
2023-03-10T16:10:40.636Z,14.19
2023-03-10T16:13:14.663Z,14.12
2023-03-10T16:15:48.424Z,14.10
2023-03-10T16:18:23.289Z,14.06
2023-03-10T16:20:56.713Z,14.04
2023-03-10T16:23:30.707Z,14.06
2023-03-10T16:26:08.063Z,14.05
2023-03-10T16:28:41.907Z,13.99
2023-03-10T16:31:16.005Z,13.99
2023-03-10T16:33:51.492Z,13.97
2023-03-10T16:36:25.275Z,13.96
2023-03-10T16:38:58.788Z,13.95
2023-03-10T16:41:31.947Z,13.91
2023-03-10T16:44:05.412Z,13.88
2023-03-10T16:46:38.524Z,13.87
2023-03-10T16:49:15.240Z,13.87
2023-03-10T16:51:49.340Z,13.83
2023-03-10T16:54:23.257Z,13.85
2023-03-10T16:56:59.138Z,13.80
2023-03-10T16:59:32.723Z,13.80
2023-03-10T17:02:05.710Z,13.79
2023-03-10T17:04:40.096Z,13.78
2023-03-10T17:07:14.296Z,13.78
2023-03-10T17:09:47.342Z,13.76
2023-03-10T17:12:21.335Z,13.74
2023-03-10T17:14:57.646Z,13.76
2023-03-10T17:17:32.500Z,13.75
2023-03-10T17:20:08.149Z,13.74
2023-03-10T17:22:41.180Z,13.76
2023-03-10T17:25:15.042Z,13.73
2023-03-10T17:27:48.217Z,13.72
2023-03-10T17:30:21.422Z,13.70
2023-03-10T17:32:54.506Z,13.69
2023-03-10T17:35:29.428Z,13.71
2023-03-10T17:38:02.597Z,13.64
2023-03-10T17:40:35.466Z,13.66
2023-03-10T17:43:23.188Z,13.64
2023-03-10T17:46:02.830Z,13.59
2023-03-10T17:48:36.468Z,13.60
2023-03-10T17:51:10.739Z,13.58
2023-03-10T17:53:43.870Z,13.62
2023-03-10T17:56:17.658Z,13.63
2023-03-10T17:58:51.042Z,13.63
2023-03-10T18:01:26.012Z,13.61
2023-03-10T18:04:00.156Z,13.61
2023-03-10T18:06:35.236Z,13.60
2023-03-10T18:09:09.081Z,13.54
2023-03-10T18:11:42.252Z,13.56
2023-03-10T18:14:15.449Z,13.55
2023-03-10T18:16:48.496Z,13.55
2023-03-10T18:19:21.439Z,13.53
2023-03-10T18:21:56.121Z,13.50
2023-03-10T18:24:29.272Z,13.46
2023-03-10T18:27:04.393Z,13.48
2023-03-10T18:29:37.570Z,13.45
2023-03-10T18:32:10.615Z,13.45
2023-03-10T18:34:43.705Z,13.47
2023-03-10T18:37:18.013Z,13.45
2023-03-10T18:39:51.195Z,13.42
2023-03-10T18:42:24.375Z,13.38
2023-03-10T18:44:57.739Z,13.40
2023-03-10T18:47:30.841Z,13.43
2023-03-10T18:50:03.832Z,13.40
2023-03-10T18:52:38.317Z,13.41
2023-03-10T18:55:12.595Z,13.41
2023-03-10T18:57:45.834Z,13.43
2023-03-10T19:00:19.707Z,13.40
2023-03-10T19:02:53.921Z,13.39
2023-03-10T19:05:26.980Z,13.36
2023-03-10T19:08:01.711Z,13.35
2023-03-10T19:10:35.164Z,13.37
2023-03-10T19:13:09.376Z,13.33
2023-03-10T19:15:42.735Z,13.36
2023-03-10T19:18:16.166Z,13.37
2023-03-10T19:20:49.246Z,13.37
2023-03-10T19:23:24.165Z,13.39
2023-03-10T19:25:57.446Z,13.45
2023-03-10T19:28:31.300Z,13.41
2023-03-10T19:31:09.093Z,13.40
2023-03-10T19:33:42.463Z,13.34
2023-03-10T19:36:17.170Z,13.36
2023-03-10T19:38:52.533Z,13.39
2023-03-10T19:41:26.098Z,13.38
2023-03-10T19:43:59.620Z,13.36
2023-03-10T19:46:35.132Z,13.34
2023-03-10T19:49:08.615Z,13.34
2023-03-10T19:51:41.802Z,13.36
2023-03-10T19:54:16.821Z,13.38
2023-03-10T19:56:50.052Z,13.38
2023-03-10T19:59:23.336Z,13.37
2023-03-10T20:02:01.645Z,13.44
2023-03-10T20:04:35.473Z,13.44
2023-03-10T20:07:08.922Z,13.44
2023-03-10T20:09:44.889Z,13.43
2023-03-10T20:12:18.608Z,13.44
2023-03-10T20:14:58.731Z,13.45
2023-03-10T20:17:32.303Z,13.41
2023-03-10T20:20:10.613Z,13.39
2023-03-10T20:22:46.401Z,13.36
2023-03-10T20:25:21.718Z,13.33
2023-03-10T20:27:55.675Z,13.31
2023-03-10T20:30:30.602Z,13.28
2023-03-10T20:33:05.334Z,13.26
2023-03-10T20:35:39.201Z,13.23
2023-03-10T20:38:12.153Z,13.22
2023-03-10T20:40:46.519Z,13.17
2023-03-10T20:43:19.536Z,13.13
2023-03-10T20:45:53.127Z,13.07
2023-03-10T20:48:26.202Z,13.04
2023-03-10T20:51:00.358Z,13.04
2023-03-10T20:53:37.223Z,13.01
2023-03-10T20:56:14.306Z,12.99
2023-03-10T20:58:47.723Z,12.96
2023-03-10T21:01:22.251Z,12.93
2023-03-10T21:03:55.642Z,12.89
2023-03-10T21:06:28.844Z,12.85
2023-03-10T21:09:05.934Z,12.85
2023-03-10T21:11:40.774Z,12.84
2023-03-10T21:14:14.608Z,12.84
2023-03-10T21:16:48.751Z,12.83
2023-03-10T21:19:21.835Z,12.81
2023-03-10T21:21:55.982Z,12.77
2023-03-10T21:24:29.062Z,12.76
2023-03-10T21:27:04.132Z,12.74
2023-03-10T21:29:36.985Z,12.67
2023-03-10T21:32:10.048Z,12.66
2023-03-10T21:34:42.975Z,12.70
2023-03-10T21:37:16.122Z,12.81
2023-03-10T21:39:49.464Z,12.94
2023-03-10T21:42:24.272Z,13.02
2023-03-10T21:44:57.226Z,13.07
2023-03-10T21:47:30.283Z,13.11
2023-03-10T21:50:03.263Z,13.12
2023-03-10T21:52:36.438Z,13.10
2023-03-10T21:55:11.445Z,13.09
2023-03-10T21:57:46.284Z,13.07
2023-03-10T22:00:20.005Z,13.06
2023-03-10T22:02:53.311Z,13.05
2023-03-10T22:05:26.352Z,13.04
2023-03-10T22:07:59.488Z,13.01
2023-03-10T22:10:32.691Z,12.99
2023-03-10T22:13:07.948Z,13.00
2023-03-10T22:15:41.554Z,12.96
2023-03-10T22:18:14.790Z,12.92
2023-03-10T22:20:47.735Z,12.94
2023-03-10T22:23:21.342Z,12.94
2023-03-10T22:25:54.843Z,12.95
2023-03-10T22:28:29.867Z,12.90
2023-03-10T22:31:03.182Z,12.91
2023-03-10T22:33:36.391Z,12.89
2023-03-10T22:36:10.362Z,12.88
2023-03-10T22:38:43.677Z,12.92
2023-03-10T22:41:16.857Z,12.98
2023-03-10T22:43:51.966Z,12.97
2023-03-10T22:46:25.169Z,12.95
2023-03-10T22:48:58.161Z,12.95
2023-03-10T22:51:31.107Z,12.91
2023-03-10T22:54:04.329Z,12.98
2023-03-10T22:56:37.416Z,13.03
2023-03-10T22:59:12.814Z,13.09
2023-03-10T23:01:45.740Z,13.08
2023-03-10T23:04:19.613Z,13.06
2023-03-10T23:06:52.577Z,13.06
2023-03-10T23:09:25.757Z,13.09
2023-03-10T23:12:01.110Z,13.10
2023-03-10T23:14:36.032Z,13.11
2023-03-10T23:17:09.577Z,13.12
2023-03-10T23:19:42.894Z,13.11
2023-03-10T23:22:16.202Z,13.10
2023-03-10T23:24:49.554Z,13.12
2023-03-10T23:27:22.780Z,13.16
2023-03-10T23:29:57.702Z,13.17
2023-03-10T23:32:30.854Z,13.19
2023-03-10T23:35:05.893Z,13.20
2023-03-10T23:37:39.167Z,13.22
2023-03-10T23:40:13.619Z,13.24
2023-03-10T23:42:47.244Z,13.18
2023-03-10T23:45:22.661Z,13.18
2023-03-10T23:47:56.659Z,13.21
2023-03-10T23:50:30.958Z,13.20
2023-03-10T23:53:04.845Z,13.19
2023-03-10T23:55:39.058Z,13.15
2023-03-10T23:58:12.877Z,13.13
